createdAt,value
2022-08-16T00:00:29.074Z,9.23
2022-08-16T00:03:05.837Z,7.80
2022-08-16T00:05:35.131Z,10.43
2022-08-16T00:08:35.898Z,9.87
2022-08-16T00:11:00.872Z,8.67
2022-08-16T00:13:27.345Z,10.37
2022-08-16T00:15:55.034Z,8.57
2022-08-16T00:18:22.339Z,9.23
2022-08-16T00:20:56.392Z,11.17
2022-08-16T00:23:24.596Z,11.53
2022-08-16T00:26:33.893Z,9.13
2022-08-16T00:28:54.884Z,11.17
2022-08-16T00:31:24.131Z,10.80
2022-08-16T00:33:51.183Z,11.23
2022-08-16T00:36:17.827Z,8.57
2022-08-16T00:38:44.254Z,14.80
2022-08-16T00:41:11.355Z,13.33
2022-08-16T00:43:42.980Z,10.57
2022-08-16T00:46:22.321Z,9.80
2022-08-16T00:49:05.303Z,11.33
2022-08-16T00:51:32.041Z,14.07
2022-08-16T00:53:58.585Z,10.73
2022-08-16T00:56:58.301Z,10.13
2022-08-16T00:59:18.864Z,11.77
2022-08-16T01:01:46.042Z,10.27
2022-08-16T01:04:28.895Z,10.27
2022-08-16T01:07:01.902Z,10.97
2022-08-16T01:09:33.276Z,11.23
2022-08-16T01:12:03.287Z,14.03
2022-08-16T01:14:35.209Z,11.47
2022-08-16T01:17:03.155Z,15.87
2022-08-16T01:19:34.984Z,13.23
2022-08-16T01:22:48.620Z,11.63
2022-08-16T01:25:02.360Z,10.67
2022-08-16T01:27:57.621Z,13.70
2022-08-16T01:30:28.560Z,14.37
2022-08-16T01:33:02.587Z,12.70
2022-08-16T01:35:47.664Z,12.87
2022-08-16T01:38:34.890Z,10.17
2022-08-16T01:41:06.811Z,12.77
2022-08-16T01:43:36.289Z,10.37
2022-08-16T01:46:37.841Z,10.10
2022-08-16T01:48:59.210Z,15.17
2022-08-16T01:51:27.625Z,12.50
2022-08-16T01:53:55.749Z,13.27
2022-08-16T01:56:25.165Z,10.87
2022-08-16T01:58:54.997Z,11.40
2022-08-16T02:01:22.223Z,10.60
2022-08-16T02:03:50.454Z,11.63
2022-08-16T02:06:33.724Z,13.63
2022-08-16T02:09:01.641Z,13.10
2022-08-16T02:11:28.551Z,10.83
2022-08-16T02:14:18.282Z,11.00
2022-08-16T02:16:48.288Z,14.20
2022-08-16T02:19:16.155Z,13.37
2022-08-16T02:22:09.095Z,10.57
2022-08-16T02:24:42.068Z,13.03
2022-08-16T02:27:10.005Z,14.43
2022-08-16T02:29:37.480Z,13.83
2022-08-16T02:32:50.795Z,15.90
2022-08-16T02:34:56.712Z,10.77
2022-08-16T02:37:23.233Z,13.30
2022-08-16T02:39:54.086Z,13.97
2022-08-16T02:42:21.289Z,14.90
2022-08-16T02:44:47.860Z,14.07
2022-08-16T02:47:25.574Z,12.87
2022-08-16T02:50:34.348Z,12.53
2022-08-16T02:52:39.175Z,14.77
2022-08-16T02:55:11.405Z,16.17
2022-08-16T02:57:38.073Z,12.60
2022-08-16T03:00:34.097Z,13.57
2022-08-16T03:03:01.730Z,15.40
2022-08-16T03:05:31.702Z,19.47
2022-08-16T03:07:59.862Z,13.53
2022-08-16T03:10:33.423Z,15.13
2022-08-16T03:13:00.798Z,15.77
2022-08-16T03:15:28.361Z,13.60
2022-08-16T03:17:56.441Z,16.23
2022-08-16T03:20:32.494Z,16.40
2022-08-16T03:22:59.474Z,15.87
2022-08-16T03:25:26.039Z,16.17
2022-08-16T03:28:09.744Z,16.37
2022-08-16T03:30:38.119Z,16.03
2022-08-16T03:33:05.517Z,14.07
2022-08-16T03:35:37.024Z,20.33
2022-08-16T03:38:34.401Z,18.13
2022-08-16T03:40:57.661Z,14.63
2022-08-16T03:43:24.606Z,13.67
2022-08-16T03:46:10.989Z,17.10
2022-08-16T03:48:40.453Z,16.83
2022-08-16T03:51:12.393Z,14.53
2022-08-16T03:53:40.486Z,16.53
2022-08-16T03:56:19.784Z,15.77
2022-08-16T03:58:48.500Z,15.60
2022-08-16T04:01:17.731Z,15.83
2022-08-16T04:03:44.342Z,15.73
2022-08-16T04:06:10.951Z,15.03
2022-08-16T04:08:39.698Z,15.03
2022-08-16T04:11:06.414Z,15.77
2022-08-16T04:14:00.497Z,18.17
2022-08-16T04:16:26.417Z,16.63
2022-08-16T04:19:02.763Z,16.97
2022-08-16T04:21:46.069Z,19.77
2022-08-16T04:24:14.646Z,18.37
2022-08-16T04:26:46.280Z,14.77
2022-08-16T04:29:21.104Z,15.47
2022-08-16T04:31:56.753Z,14.57
2022-08-16T04:34:30.141Z,17.60
2022-08-16T04:36:57.991Z,17.57
2022-08-16T04:39:46.135Z,16.97
2022-08-16T04:42:17.668Z,14.30
2022-08-16T04:44:53.937Z,15.77
2022-08-16T04:47:24.439Z,15.03
2022-08-16T04:49:52.463Z,14.63
2022-08-16T04:52:34.237Z,20.60
2022-08-16T04:55:16.672Z,14.10
2022-08-16T04:57:44.575Z,16.93
2022-08-16T05:00:31.235Z,15.63
2022-08-16T05:03:10.826Z,16.80
2022-08-16T05:05:45.078Z,16.20
2022-08-16T05:08:28.004Z,17.63
2022-08-16T05:10:59.871Z,16.23
2022-08-16T05:13:40.010Z,16.33
2022-08-16T05:16:11.894Z,18.07
2022-08-16T05:18:43.288Z,18.47
2022-08-16T05:21:12.617Z,16.70
2022-08-16T05:23:39.271Z,17.17
2022-08-16T05:26:05.881Z,17.20
2022-08-16T05:28:46.381Z,16.67
2022-08-16T05:31:13.041Z,17.07
2022-08-16T05:33:42.124Z,16.80
2022-08-16T05:36:14.446Z,18.33
2022-08-16T05:38:41.182Z,17.00
2022-08-16T05:41:09.440Z,19.77
2022-08-16T05:43:43.397Z,20.00
2022-08-16T05:46:29.993Z,19.00
2022-08-16T05:49:03.746Z,18.87
2022-08-16T05:51:37.628Z,17.57
2022-08-16T05:54:11.225Z,20.90
2022-08-16T05:56:38.372Z,22.13
2022-08-16T05:59:06.705Z,21.20
2022-08-16T06:01:38.022Z,20.63
2022-08-16T06:04:12.717Z,19.17
2022-08-16T06:06:43.541Z,17.57
2022-08-16T06:09:24.142Z,19.63
2022-08-16T06:11:51.001Z,22.83
2022-08-16T06:14:17.673Z,21.13
2022-08-16T06:16:44.411Z,20.30
2022-08-16T06:19:17.048Z,16.97
2022-08-16T06:21:43.986Z,18.20
2022-08-16T06:24:54.242Z,20.27
2022-08-16T06:26:57.828Z,20.00
2022-08-16T06:29:24.852Z,19.63
2022-08-16T06:31:51.717Z,18.80
2022-08-16T06:34:31.862Z,18.20
2022-08-16T06:37:05.108Z,20.03
2022-08-16T06:39:34.339Z,21.60
2022-08-16T06:42:01.223Z,22.13
2022-08-16T06:44:27.690Z,20.77
2022-08-16T06:46:54.343Z,20.23
2022-08-16T06:49:21.015Z,24.90
2022-08-16T06:51:48.941Z,19.30
2022-08-16T06:54:16.233Z,20.17
2022-08-16T06:56:43.212Z,19.67
2022-08-16T06:59:10.487Z,19.93
2022-08-16T07:01:46.102Z,22.80
2022-08-16T07:04:32.064Z,21.60
2022-08-16T07:07:01.060Z,19.77
2022-08-16T07:09:29.566Z,20.70
2022-08-16T07:11:57.340Z,20.13
2022-08-16T07:14:31.430Z,21.47
2022-08-16T07:16:59.644Z,20.17
2022-08-16T07:20:01.304Z,17.70
2022-08-16T07:22:47.695Z,21.40
2022-08-16T07:25:04.300Z,19.17
2022-08-16T07:27:32.106Z,17.87
2022-08-16T07:30:00.400Z,17.70
2022-08-16T07:32:29.101Z,19.17
2022-08-16T07:34:56.348Z,20.57
2022-08-16T07:37:23.279Z,19.80
2022-08-16T07:39:50.783Z,17.77
2022-08-16T07:42:20.389Z,18.13
2022-08-16T07:44:57.071Z,17.47
2022-08-16T07:47:24.405Z,17.37
2022-08-16T07:49:53.393Z,15.63
2022-08-16T07:52:24.813Z,17.00
2022-08-16T07:54:57.556Z,18.23
2022-08-16T07:57:24.783Z,17.97
2022-08-16T07:59:51.971Z,17.27
2022-08-16T08:02:20.046Z,18.53
2022-08-16T08:04:47.269Z,17.80
2022-08-16T08:07:16.238Z,19.50
2022-08-16T08:09:43.876Z,17.13
2022-08-16T08:12:32.317Z,20.00
2022-08-16T08:14:57.516Z,20.00
2022-08-16T08:17:24.332Z,19.70
2022-08-16T08:19:53.626Z,15.77
2022-08-16T08:22:22.431Z,19.40
2022-08-16T08:24:53.265Z,19.43
2022-08-16T08:27:22.946Z,18.30
2022-08-16T08:30:48.914Z,18.63
2022-08-16T08:32:57.509Z,15.53
2022-08-16T08:35:24.350Z,19.83
2022-08-16T08:37:55.207Z,18.87
2022-08-16T08:40:24.538Z,17.77
2022-08-16T08:43:00.069Z,18.63
2022-08-16T08:48:34.399Z,16.77
2022-08-16T08:51:04.380Z,14.07
2022-08-16T08:53:32.616Z,16.30
2022-08-16T08:56:00.681Z,15.17
2022-08-16T08:58:54.223Z,17.53
2022-08-16T09:01:36.788Z,21.77
2022-08-16T09:04:10.363Z,16.57
2022-08-16T09:06:43.800Z,19.17
2022-08-16T09:09:16.653Z,15.93
2022-08-16T09:11:47.288Z,14.07
2022-08-16T09:14:24.818Z,16.97
2022-08-16T09:17:03.540Z,14.83
2022-08-16T09:19:37.279Z,13.60
2022-08-16T09:22:19.844Z,15.47
2022-08-16T09:24:53.206Z,15.53
2022-08-16T09:27:23.502Z,15.80
2022-08-16T09:30:00.168Z,15.17
2022-08-16T09:32:30.351Z,17.97
2022-08-16T09:34:58.470Z,12.83
2022-08-16T09:37:29.824Z,12.87
2022-08-16T09:39:58.170Z,11.30
2022-08-16T09:42:27.029Z,11.87
2022-08-16T09:45:10.830Z,9.17
2022-08-16T09:47:56.575Z,11.60
2022-08-16T09:50:36.831Z,11.63
2022-08-16T09:53:15.518Z,12.87
2022-08-16T09:55:49.274Z,13.23
2022-08-16T09:58:40.721Z,9.03
2022-08-16T10:01:05.113Z,14.83
2022-08-16T10:03:31.760Z,9.93
2022-08-16T10:05:58.227Z,12.53
2022-08-16T10:08:26.550Z,9.40
2022-08-16T10:11:12.199Z,10.77
2022-08-16T10:13:39.487Z,10.90
2022-08-16T10:16:08.973Z,11.77
2022-08-16T10:19:01.033Z,12.57
2022-08-16T10:21:23.999Z,14.80
2022-08-16T10:23:53.682Z,11.23
2022-08-16T10:27:16.797Z,9.33
2022-08-16T10:29:08.371Z,10.57
2022-08-16T10:31:44.153Z,11.57
2022-08-16T10:34:30.875Z,10.03
2022-08-16T10:36:58.840Z,8.97
2022-08-16T10:39:25.636Z,10.57
2022-08-16T10:41:52.078Z,10.70
2022-08-16T10:44:18.502Z,9.57
2022-08-16T10:46:45.160Z,12.37
2022-08-16T10:49:12.839Z,10.20
2022-08-16T10:52:02.618Z,11.43
2022-08-16T10:54:31.015Z,11.27
2022-08-16T10:56:59.458Z,10.00
2022-08-16T10:59:38.191Z,10.93
2022-08-16T11:02:59.984Z,12.60
2022-08-16T11:05:07.072Z,12.03
2022-08-16T11:07:43.444Z,9.90
2022-08-16T11:10:59.144Z,12.07
2022-08-16T11:15:55.800Z,11.93
2022-08-16T11:19:03.481Z,9.67
2022-08-16T11:21:10.608Z,13.53
2022-08-16T11:23:58.743Z,10.67
2022-08-16T11:26:25.858Z,10.67
2022-08-16T11:31:40.286Z,12.73
2022-08-16T11:34:15.439Z,9.73
2022-08-16T11:36:53.928Z,9.73
2022-08-16T11:39:31.861Z,12.53
2022-08-16T11:42:00.706Z,14.83
2022-08-16T11:44:52.109Z,13.33
2022-08-16T11:47:15.409Z,11.77
2022-08-16T11:49:41.841Z,9.67
2022-08-16T11:52:08.282Z,9.27
2022-08-16T11:54:36.731Z,7.90
2022-08-16T11:57:09.354Z,11.90
2022-08-16T11:59:39.580Z,11.90
2022-08-16T12:02:32.522Z,7.90
2022-08-16T12:04:53.818Z,11.47
2022-08-16T12:07:20.988Z,6.93
2022-08-16T12:09:50.487Z,10.83
2022-08-16T12:12:19.734Z,7.83
2022-08-16T12:14:46.146Z,8.47
2022-08-16T12:17:14.253Z,6.70
2022-08-16T12:19:41.337Z,10.23
2022-08-16T12:22:19.281Z,9.80
2022-08-16T12:24:51.223Z,9.40
2022-08-16T12:27:23.040Z,11.33
2022-08-16T12:29:51.375Z,11.47
2022-08-16T12:32:35.909Z,9.03
2022-08-16T12:35:06.653Z,11.73
2022-08-16T12:37:33.807Z,13.17
2022-08-16T12:40:01.573Z,10.10
2022-08-16T12:42:34.772Z,8.60
2022-08-16T12:45:08.620Z,9.37
2022-08-16T12:48:10.063Z,9.67
2022-08-16T12:50:40.686Z,11.17
2022-08-16T12:53:07.152Z,10.63
2022-08-16T12:55:41.765Z,8.83
2022-08-16T12:58:13.702Z,9.83
2022-08-16T13:00:55.194Z,9.47
2022-08-16T13:03:21.775Z,7.50
2022-08-16T13:05:53.611Z,8.90
2022-08-16T13:08:22.874Z,6.90
2022-08-16T13:10:57.127Z,8.57
2022-08-16T13:13:24.939Z,8.30
2022-08-16T13:16:03.639Z,8.40
2022-08-16T13:18:35.724Z,10.07
2022-08-16T13:21:05.154Z,8.00
2022-08-16T13:23:32.416Z,7.77
2022-08-16T13:25:59.263Z,8.63
2022-08-16T13:28:26.047Z,10.73
2022-08-16T13:30:56.665Z,8.70
2022-08-16T13:33:30.173Z,7.83
2022-08-16T13:35:59.492Z,8.10
2022-08-16T13:38:30.187Z,9.03
2022-08-16T13:40:59.849Z,7.43
2022-08-16T13:43:27.447Z,9.33
2022-08-16T13:45:56.479Z,8.10
2022-08-16T13:48:25.891Z,10.03
2022-08-16T13:51:01.497Z,9.47
2022-08-16T13:53:30.810Z,7.33
2022-08-16T13:55:59.453Z,8.90
2022-08-16T13:58:34.739Z,8.07
2022-08-16T14:01:03.289Z,12.83
2022-08-16T14:03:30.414Z,8.60
2022-08-16T14:05:56.788Z,7.80
2022-08-16T14:08:27.163Z,7.80
2022-08-16T14:10:54.204Z,8.50
2022-08-16T14:13:21.261Z,9.87
2022-08-16T14:15:48.796Z,9.60
2022-08-16T14:18:20.341Z,7.30
2022-08-16T14:20:48.610Z,7.13
2022-08-16T14:23:15.539Z,7.57
2022-08-16T14:25:42.331Z,7.80
2022-08-16T14:28:09.620Z,7.63
2022-08-16T14:30:37.944Z,7.30
2022-08-16T14:33:07.021Z,8.40
2022-08-16T14:35:48.381Z,10.20
2022-08-16T14:38:18.001Z,9.77
2022-08-16T14:40:49.475Z,10.20
2022-08-16T14:43:19.854Z,11.53
2022-08-16T14:45:47.018Z,9.07
2022-08-16T14:48:21.426Z,11.10
2022-08-16T14:50:51.906Z,9.20
2022-08-16T14:53:20.421Z,14.37
2022-08-16T14:55:47.066Z,10.87
2022-08-16T14:58:19.479Z,11.93
2022-08-16T15:00:50.724Z,9.40
2022-08-16T15:03:21.795Z,10.93
2022-08-16T15:05:49.519Z,9.80
2022-08-16T15:08:20.730Z,7.67
2022-08-16T15:10:47.367Z,7.80
2022-08-16T15:13:15.311Z,7.10
2022-08-16T15:15:43.450Z,9.13
2022-08-16T15:18:11.997Z,16.13
2022-08-16T15:20:39.485Z,10.20
2022-08-16T15:23:08.513Z,9.73
2022-08-16T15:25:47.019Z,9.03
2022-08-16T15:28:31.908Z,9.43
2022-08-16T15:31:03.139Z,8.33
2022-08-16T15:33:33.348Z,7.93
2022-08-16T15:35:59.821Z,11.27
2022-08-16T15:38:57.640Z,8.27
2022-08-16T15:41:55.561Z,14.17
2022-08-16T15:44:25.647Z,10.73
2022-08-16T15:46:58.765Z,7.37
2022-08-16T15:49:34.814Z,10.37
2022-08-16T15:52:29.875Z,9.93
2022-08-16T15:54:59.310Z,8.43
2022-08-16T15:57:28.252Z,9.80
2022-08-16T16:00:04.934Z,12.27
2022-08-16T16:02:41.485Z,14.57
2022-08-16T16:05:09.611Z,9.90
2022-08-16T16:07:37.572Z,12.87
2022-08-16T16:10:13.447Z,15.60
2022-08-16T16:12:53.460Z,11.57
2022-08-16T16:15:24.444Z,11.07
2022-08-16T16:17:52.659Z,12.87
2022-08-16T16:20:21.661Z,10.47
2022-08-16T16:22:49.273Z,11.90
2022-08-16T16:25:17.766Z,10.10
2022-08-16T16:27:45.443Z,8.93
2022-08-16T16:30:33.535Z,10.40
2022-08-16T16:33:02.489Z,7.67
2022-08-16T16:35:32.732Z,7.90
2022-08-16T16:37:59.577Z,8.53
2022-08-16T16:40:32.226Z,9.90
2022-08-16T16:43:00.405Z,8.43
2022-08-16T16:45:34.622Z,8.83
2022-08-16T16:48:11.744Z,7.03
2022-08-16T16:50:43.653Z,9.17
2022-08-16T16:53:17.341Z,10.27
2022-08-16T16:55:52.221Z,11.17
2022-08-16T16:58:38.971Z,9.00
2022-08-16T17:01:09.781Z,10.27
2022-08-16T17:03:36.262Z,7.87
2022-08-16T17:06:09.129Z,8.63
2022-08-16T17:08:37.802Z,7.40
2022-08-16T17:11:08.083Z,7.50
2022-08-16T17:13:34.581Z,9.23
2022-08-16T17:16:02.158Z,11.13
2022-08-16T17:19:14.931Z,8.73
2022-08-16T17:21:16.732Z,7.33
2022-08-16T17:23:59.613Z,6.97
2022-08-16T17:26:31.164Z,7.23
2022-08-16T17:29:11.335Z,9.17
2022-08-16T17:31:40.895Z,7.70
2022-08-16T17:34:29.126Z,7.43
2022-08-16T17:36:58.835Z,6.10
2022-08-16T17:39:28.757Z,8.27
2022-08-16T17:41:57.082Z,7.53
2022-08-16T17:44:23.631Z,8.20
2022-08-16T17:46:52.248Z,6.10
2022-08-16T17:49:19.241Z,6.47
2022-08-16T17:51:45.666Z,5.90
2022-08-16T17:54:20.421Z,5.87
2022-08-16T17:57:00.894Z,10.70
2022-08-16T17:59:27.874Z,6.23
2022-08-16T18:01:54.481Z,6.07
2022-08-16T18:04:49.619Z,5.40
2022-08-16T18:07:08.308Z,6.40
2022-08-16T18:09:36.824Z,6.83
2022-08-16T18:12:44.082Z,7.57
2022-08-16T18:15:04.416Z,5.67
2022-08-16T18:17:31.926Z,6.70
2022-08-16T18:19:58.421Z,6.20
2022-08-16T18:22:30.577Z,7.23
2022-08-16T18:24:57.719Z,6.53
2022-08-16T18:27:25.836Z,6.93
2022-08-16T18:29:53.440Z,6.60
2022-08-16T18:32:22.171Z,9.90
2022-08-16T18:34:52.470Z,10.30
2022-08-16T18:37:20.245Z,7.43
2022-08-16T18:39:46.715Z,10.97
2022-08-16T18:42:14.763Z,7.13
2022-08-16T18:44:43.400Z,6.40
2022-08-16T18:47:10.433Z,6.67
2022-08-16T18:49:37.132Z,6.57
2022-08-16T18:52:04.086Z,11.73
2022-08-16T18:54:32.228Z,6.80
2022-08-16T18:56:58.739Z,8.30
2022-08-16T18:59:30.194Z,8.47
2022-08-16T19:02:04.380Z,8.53
2022-08-16T19:04:57.272Z,8.50
2022-08-16T19:07:30.606Z,9.27
2022-08-16T19:09:57.845Z,9.63
2022-08-16T19:12:38.700Z,10.93
2022-08-16T19:15:15.880Z,10.20
2022-08-16T19:17:44.120Z,9.03
2022-08-16T19:20:12.123Z,11.10
2022-08-16T19:23:02.042Z,16.43
2022-08-16T19:25:47.653Z,13.90
2022-08-16T19:28:44.268Z,17.20
2022-08-16T19:31:15.089Z,17.13
2022-08-16T19:33:53.769Z,13.57
2022-08-16T19:36:31.456Z,16.33
2022-08-16T19:39:05.447Z,15.93
2022-08-16T19:41:43.355Z,14.87
2022-08-16T19:44:10.177Z,15.17
2022-08-16T19:46:38.137Z,13.73
2022-08-16T19:49:04.847Z,16.27
2022-08-16T19:51:31.278Z,15.67
2022-08-16T19:53:57.704Z,17.53
2022-08-16T19:56:25.839Z,14.67
2022-08-16T19:59:17.380Z,15.03
2022-08-16T20:01:42.195Z,13.80
2022-08-16T20:04:12.137Z,18.17
2022-08-16T20:06:39.427Z,22.57
2022-08-16T20:09:06.796Z,23.93
2022-08-16T20:11:34.721Z,21.77
2022-08-16T20:14:01.831Z,20.67
2022-08-16T20:16:28.292Z,21.53
2022-08-16T20:18:54.708Z,19.90
2022-08-16T20:21:21.113Z,21.20
2022-08-16T20:23:47.517Z,19.17
2022-08-16T20:26:13.934Z,21.63
2022-08-16T20:28:54.095Z,20.07
2022-08-16T20:31:22.334Z,21.70
2022-08-16T20:33:49.309Z,19.03
2022-08-16T20:36:16.759Z,18.33
2022-08-16T20:38:46.801Z,19.20
2022-08-16T20:41:13.622Z,21.03
2022-08-16T20:43:40.205Z,19.60
2022-08-16T20:46:06.717Z,23.47
2022-08-16T20:48:33.163Z,20.90
2022-08-16T20:50:59.572Z,18.77
2022-08-16T20:53:25.978Z,21.37
2022-08-16T20:55:52.391Z,23.20
2022-08-16T20:58:18.820Z,21.70
2022-08-16T21:00:45.429Z,23.53
2022-08-16T21:03:13.218Z,26.37
2022-08-16T21:05:39.866Z,26.53
2022-08-16T21:08:52.753Z,27.37
2022-08-16T21:10:53.579Z,23.80
2022-08-16T21:13:20.869Z,27.87
2022-08-16T21:15:47.813Z,27.07
2022-08-16T21:18:14.849Z,24.87
2022-08-16T21:20:41.341Z,28.40
2022-08-16T21:23:10.016Z,26.20
2022-08-16T21:25:44.821Z,27.40
2022-08-16T21:28:40.025Z,34.13
2022-08-16T21:31:08.870Z,28.97
2022-08-16T21:33:35.933Z,25.87
2022-08-16T21:36:02.521Z,23.60
2022-08-16T21:38:30.868Z,26.73
2022-08-16T21:40:59.250Z,24.50
2022-08-16T21:43:28.645Z,24.20
2022-08-16T21:45:55.706Z,25.93
2022-08-16T21:48:33.871Z,29.00
2022-08-16T21:51:03.464Z,24.33
2022-08-16T21:53:30.032Z,25.87
2022-08-16T21:55:58.673Z,24.90
2022-08-16T21:58:25.657Z,28.63
2022-08-16T22:00:52.825Z,26.10
2022-08-16T22:03:19.745Z,28.87
2022-08-16T22:06:11.771Z,26.83
2022-08-16T22:08:35.747Z,28.73
2022-08-16T22:11:16.564Z,26.03
2022-08-16T22:13:42.957Z,30.07
2022-08-16T22:16:17.959Z,31.53
2022-08-16T22:18:52.391Z,30.00
2022-08-16T22:21:19.195Z,26.33
2022-08-16T22:23:45.701Z,28.97
2022-08-16T22:26:30.848Z,28.27
2022-08-16T22:29:03.335Z,26.83
2022-08-16T22:31:30.177Z,24.33
2022-08-16T22:33:57.227Z,26.30
2022-08-16T22:36:28.188Z,27.17
2022-08-16T22:38:58.040Z,24.63
2022-08-16T22:41:26.403Z,26.37
2022-08-16T22:43:52.842Z,24.80
2022-08-16T22:46:19.544Z,24.07
2022-08-16T22:48:46.206Z,22.87
2022-08-16T22:51:13.041Z,22.50
2022-08-16T22:53:39.475Z,26.17
2022-08-16T22:56:06.122Z,21.87
2022-08-16T22:58:36.488Z,22.70
2022-08-16T23:01:05.726Z,21.47
2022-08-16T23:03:33.110Z,21.33
2022-08-16T23:06:00.730Z,20.97
2022-08-16T23:08:38.434Z,21.93
2022-08-16T23:11:07.037Z,18.70
2022-08-16T23:13:33.494Z,22.00
2022-08-16T23:16:11.487Z,19.33
2022-08-16T23:18:38.806Z,19.93
2022-08-16T23:21:09.172Z,18.13
2022-08-16T23:23:36.748Z,20.20
2022-08-16T23:26:44.355Z,17.70
2022-08-16T23:28:50.779Z,17.50
2022-08-16T23:31:17.533Z,17.67
2022-08-16T23:33:44.336Z,15.70
2022-08-16T23:36:10.985Z,17.37
2022-08-16T23:38:39.473Z,18.43
2022-08-16T23:41:11.267Z,18.30
2022-08-16T23:43:43.055Z,15.87
2022-08-16T23:46:16.823Z,17.10
2022-08-16T23:49:56.028Z,16.73
2022-08-16T23:51:31.360Z,15.27
2022-08-16T23:53:57.891Z,15.13
2022-08-16T23:56:25.642Z,15.77
2022-08-16T23:59:01.830Z,23.07
